RYR8VV LEPA-LIRN
Flight info
| Callsign | RYR8VV |
|---|---|
| Flight time | N/A |
| Altitude | 36000 |
| Route | MORSS DCT BAVON DCT ORKUM DCT ELSAG DCT ALG DCT ARSIK DCT MOROB DCT ORVEX DCT KOLUS DCT POKAV DCT ROTUN DCT PNZ |
| Aircraft | A320/M-SDE3FGHIRWY/LB1 |
Departure
| Time | N/A |
|---|---|
| Airport | Palma de Mallorca Airport (LEPA) |
Arrival
| Time | 2026-04-30 11:26 |
|---|---|
| Airport | Naples International Airport (LIRN) |
| Time | Latitude | Longitude | Altitude | Speed | Heading |
|---|---|---|---|---|---|
| 2026-04-30 10:19 | 40.37956 | 6.58798 | 36093 ft | 496 kts | 71° |
| 2026-04-30 10:19 | 40.38869 | 6.63163 | 36093 ft | 496 kts | 72° |
| 2026-04-30 10:20 | 40.40694 | 6.71900 | 36092 ft | 496 kts | 71° |
| 2026-04-30 10:20 | 40.43138 | 6.83585 | 36090 ft | 496 kts | 72° |
| 2026-04-30 10:21 | 40.44955 | 6.92323 | 36097 ft | 496 kts | 71° |
| 2026-04-30 10:21 | 40.46749 | 7.00997 | 36100 ft | 495 kts | 71° |
| 2026-04-30 10:22 | 40.48546 | 7.09730 | 36097 ft | 495 kts | 71° |
| 2026-04-30 10:22 | 40.50339 | 7.18462 | 36096 ft | 495 kts | 72° |
| 2026-04-30 10:23 | 40.52120 | 7.27203 | 36093 ft | 495 kts | 72° |
| 2026-04-30 10:23 | 40.53895 | 7.35942 | 36092 ft | 495 kts | 72° |
| 2026-04-30 10:24 | 40.55669 | 7.44690 | 36095 ft | 495 kts | 72° |
| 2026-04-30 10:24 | 40.56858 | 7.53625 | 36094 ft | 498 kts | 81° |
| 2026-04-30 10:25 | 40.57636 | 7.62671 | 36103 ft | 498 kts | 81° |
| 2026-04-30 10:25 | 40.58416 | 7.71712 | 36101 ft | 497 kts | 81° |
| 2026-04-30 10:26 | 40.59184 | 7.80734 | 36096 ft | 496 kts | 81° |
| 2026-04-30 10:26 | 40.59950 | 7.89747 | 36090 ft | 496 kts | 81° |
| 2026-04-30 10:27 | 40.60687 | 7.98559 | 36092 ft | 495 kts | 81° |
| 2026-04-30 10:27 | 40.61438 | 8.07568 | 36088 ft | 495 kts | 81° |
| 2026-04-30 10:28 | 40.62169 | 8.16441 | 36095 ft | 495 kts | 81° |
| 2026-04-30 10:28 | 40.62900 | 8.25439 | 36090 ft | 494 kts | 81° |
| 2026-04-30 10:29 | 40.63602 | 8.34156 | 36083 ft | 493 kts | 81° |
| 2026-04-30 10:29 | 40.64319 | 8.43126 | 36083 ft | 492 kts | 81° |
| 2026-04-30 10:30 | 40.65025 | 8.52090 | 36097 ft | 492 kts | 81° |
| 2026-04-30 10:30 | 40.65718 | 8.61019 | 36094 ft | 491 kts | 81° |
| 2026-04-30 10:31 | 40.66402 | 8.69965 | 36103 ft | 491 kts | 81° |
| 2026-04-30 10:31 | 40.67082 | 8.78903 | 36108 ft | 490 kts | 81° |
| 2026-04-30 10:32 | 40.67771 | 8.87830 | 36119 ft | 489 kts | 81° |
| 2026-04-30 10:32 | 40.68447 | 8.96750 | 36113 ft | 489 kts | 81° |
| 2026-04-30 10:33 | 40.69093 | 9.05670 | 36112 ft | 489 kts | 82° |
| 2026-04-30 10:33 | 40.69730 | 9.14588 | 36138 ft | 489 kts | 81° |
| 2026-04-30 10:34 | 40.70369 | 9.23507 | 36126 ft | 489 kts | 82° |
| 2026-04-30 10:34 | 40.71000 | 9.32412 | 36133 ft | 488 kts | 82° |
| 2026-04-30 10:35 | 40.71613 | 9.41333 | 36142 ft | 488 kts | 82° |
| 2026-04-30 10:35 | 40.72228 | 9.50246 | 36154 ft | 488 kts | 81° |
| 2026-04-30 10:36 | 40.72854 | 9.59153 | 36151 ft | 488 kts | 81° |
| 2026-04-30 10:36 | 40.73476 | 9.68056 | 36156 ft | 488 kts | 81° |
| 2026-04-30 10:37 | 40.74092 | 9.76955 | 36154 ft | 487 kts | 81° |
| 2026-04-30 10:37 | 40.74694 | 9.85855 | 36170 ft | 487 kts | 81° |
| 2026-04-30 10:38 | 40.75279 | 9.94762 | 36155 ft | 487 kts | 82° |
| 2026-04-30 10:38 | 40.75857 | 10.03663 | 36147 ft | 487 kts | 82° |
| 2026-04-30 10:39 | 40.76442 | 10.12566 | 36147 ft | 487 kts | 82° |
| 2026-04-30 10:39 | 40.77017 | 10.21467 | 36163 ft | 487 kts | 82° |
| 2026-04-30 10:40 | 40.77580 | 10.30367 | 36154 ft | 486 kts | 82° |
| 2026-04-30 10:40 | 40.78137 | 10.39252 | 36151 ft | 486 kts | 82° |
| 2026-04-30 10:41 | 40.78681 | 10.48079 | 36153 ft | 486 kts | 82° |
| 2026-04-30 10:41 | 40.79222 | 10.56967 | 36150 ft | 486 kts | 82° |
| 2026-04-30 10:42 | 40.79763 | 10.65841 | 36155 ft | 485 kts | 82° |
| 2026-04-30 10:42 | 40.80293 | 10.74715 | 36152 ft | 485 kts | 82° |
| 2026-04-30 10:43 | 40.80816 | 10.83587 | 36151 ft | 485 kts | 82° |
| 2026-04-30 10:43 | 40.81331 | 10.92451 | 36148 ft | 484 kts | 82° |
| 2026-04-30 10:44 | 40.81837 | 11.01315 | 36146 ft | 484 kts | 82° |
| 2026-04-30 10:44 | 40.82339 | 11.10173 | 36153 ft | 484 kts | 82° |
| 2026-04-30 10:45 | 40.82843 | 11.19039 | 36148 ft | 484 kts | 82° |
| 2026-04-30 10:45 | 40.83337 | 11.27904 | 36145 ft | 484 kts | 83° |
| 2026-04-30 10:46 | 40.83811 | 11.36799 | 35853 ft | 487 kts | 82° |
| 2026-04-30 10:46 | 40.84044 | 11.41269 | 35599 ft | 489 kts | 82° |
| 2026-04-30 10:46 | 40.84275 | 11.45746 | 35352 ft | 489 kts | 82° |
| 2026-04-30 10:47 | 40.84505 | 11.50232 | 35108 ft | 490 kts | 82° |
| 2026-04-30 10:47 | 40.84733 | 11.54726 | 34864 ft | 490 kts | 82° |
| 2026-04-30 10:47 | 40.84961 | 11.59223 | 34625 ft | 491 kts | 82° |
| 2026-04-30 10:47 | 40.85187 | 11.63725 | 33970 ft | 493 kts | 82° |
| 2026-04-30 10:48 | 40.85411 | 11.68270 | 33032 ft | 497 kts | 83° |
| 2026-04-30 10:48 | 40.85628 | 11.72749 | 32513 ft | 492 kts | 83° |
| 2026-04-30 10:48 | 40.85844 | 11.77234 | 31954 ft | 488 kts | 83° |
| 2026-04-30 10:48 | 40.86060 | 11.81685 | 31404 ft | 484 kts | 83° |
| 2026-04-30 10:49 | 40.86271 | 11.86027 | 30861 ft | 480 kts | 83° |
| 2026-04-30 10:49 | 40.86483 | 11.90415 | 30311 ft | 477 kts | 84° |
| 2026-04-30 10:49 | 40.86691 | 11.94775 | 29708 ft | 473 kts | 84° |
| 2026-04-30 10:49 | 40.86896 | 11.99088 | 29176 ft | 468 kts | 84° |
| 2026-04-30 10:50 | 40.87098 | 12.03354 | 28638 ft | 463 kts | 84° |
| 2026-04-30 10:50 | 40.87295 | 12.07585 | 28109 ft | 459 kts | 84° |
| 2026-04-30 10:50 | 40.87488 | 12.11776 | 27586 ft | 455 kts | 84° |
| 2026-04-30 10:50 | 40.87678 | 12.15934 | 27071 ft | 451 kts | 84° |
| 2026-04-30 10:51 | 40.87863 | 12.20055 | 26567 ft | 448 kts | 84° |
| 2026-04-30 10:51 | 40.88044 | 12.24147 | 26068 ft | 445 kts | 84° |
| 2026-04-30 10:51 | 40.88224 | 12.28210 | 25593 ft | 442 kts | 84° |
| 2026-04-30 10:51 | 40.88405 | 12.32252 | 25120 ft | 439 kts | 84° |
| 2026-04-30 10:52 | 40.88587 | 12.36274 | 24660 ft | 437 kts | 84° |
| 2026-04-30 10:52 | 40.88771 | 12.40276 | 24201 ft | 436 kts | 84° |
| 2026-04-30 10:52 | 40.88957 | 12.44266 | 23755 ft | 434 kts | 84° |
| 2026-04-30 10:52 | 40.89143 | 12.48249 | 23235 ft | 433 kts | 84° |
| 2026-04-30 10:53 | 40.89326 | 12.52203 | 22780 ft | 430 kts | 84° |
| 2026-04-30 10:53 | 40.89502 | 12.56138 | 22341 ft | 427 kts | 84° |
| 2026-04-30 10:53 | 40.89669 | 12.60002 | 22163 ft | 416 kts | 85° |
| 2026-04-30 10:53 | 40.89834 | 12.63808 | 21668 ft | 415 kts | 84° |
| 2026-04-30 10:54 | 40.89998 | 12.67603 | 21162 ft | 413 kts | 84° |
| 2026-04-30 10:54 | 40.90162 | 12.71391 | 20639 ft | 412 kts | 85° |
| 2026-04-30 10:54 | 40.90323 | 12.75171 | 20114 ft | 411 kts | 85° |
| 2026-04-30 10:54 | 40.90484 | 12.78943 | 19578 ft | 411 kts | 85° |
| 2026-04-30 10:55 | 40.90645 | 12.82712 | 19042 ft | 410 kts | 85° |
| 2026-04-30 10:55 | 40.90805 | 12.86475 | 18496 ft | 410 kts | 85° |
| 2026-04-30 10:55 | 40.90960 | 12.90234 | 17901 ft | 409 kts | 85° |
| 2026-04-30 10:55 | 40.90958 | 12.93971 | 17405 ft | 406 kts | 95° |
| 2026-04-30 10:56 | 40.90407 | 12.97616 | 16857 ft | 404 kts | 107° |
| 2026-04-30 10:56 | 40.89351 | 13.01015 | 16480 ft | 397 kts | 115° |
| 2026-04-30 10:56 | 40.88209 | 13.04300 | 16095 ft | 390 kts | 114° |
| 2026-04-30 10:56 | 40.87093 | 13.07531 | 15702 ft | 384 kts | 114° |
| 2026-04-30 10:57 | 40.85995 | 13.10719 | 15324 ft | 378 kts | 114° |
| 2026-04-30 10:57 | 40.84951 | 13.13751 | 14995 ft | 373 kts | 114° |
| 2026-04-30 10:57 | 40.83883 | 13.16857 | 14574 ft | 370 kts | 114° |
| 2026-04-30 10:57 | 40.82820 | 13.19931 | 14199 ft | 366 kts | 114° |
| 2026-04-30 10:58 | 40.81765 | 13.22965 | 13820 ft | 362 kts | 114° |
| 2026-04-30 10:58 | 40.80717 | 13.25975 | 13437 ft | 359 kts | 114° |
| 2026-04-30 10:58 | 40.79677 | 13.28954 | 13075 ft | 356 kts | 114° |
| 2026-04-30 10:58 | 40.78644 | 13.31905 | 12712 ft | 353 kts | 114° |
| 2026-04-30 10:59 | 40.77640 | 13.34764 | 12373 ft | 349 kts | 114° |
| 2026-04-30 10:59 | 40.76623 | 13.37658 | 12068 ft | 344 kts | 114° |
| 2026-04-30 10:59 | 40.75637 | 13.40469 | 11942 ft | 332 kts | 114° |
| 2026-04-30 10:59 | 40.74642 | 13.43166 | 11814 ft | 322 kts | 120° |
| 2026-04-30 11:00 | 40.73318 | 13.45478 | 11688 ft | 312 kts | 135° |
| 2026-04-30 11:00 | 40.71686 | 13.47267 | 11558 ft | 298 kts | 146° |
| 2026-04-30 11:00 | 40.70034 | 13.48800 | 11270 ft | 285 kts | 145° |
| 2026-04-30 11:00 | 40.68427 | 13.50293 | 10839 ft | 281 kts | 145° |
| 2026-04-30 11:01 | 40.66845 | 13.51766 | 10369 ft | 276 kts | 144° |
| 2026-04-30 11:01 | 40.65283 | 13.53218 | 9881 ft | 273 kts | 144° |
| 2026-04-30 11:01 | 40.63771 | 13.54625 | 9506 ft | 266 kts | 144° |
| 2026-04-30 11:01 | 40.62328 | 13.56144 | 9349 ft | 266 kts | 131° |
| 2026-04-30 11:02 | 40.61315 | 13.58154 | 9120 ft | 263 kts | 111° |
| 2026-04-30 11:02 | 40.60867 | 13.60464 | 8901 ft | 260 kts | 91° |
| 2026-04-30 11:02 | 40.60916 | 13.62826 | 8684 ft | 258 kts | 84° |
| 2026-04-30 11:02 | 40.61018 | 13.65184 | 8462 ft | 258 kts | 84° |
| 2026-04-30 11:03 | 40.61110 | 13.67544 | 8246 ft | 258 kts | 85° |
| 2026-04-30 11:03 | 40.61200 | 13.69906 | 8035 ft | 260 kts | 85° |
| 2026-04-30 11:03 | 40.61291 | 13.72285 | 7719 ft | 261 kts | 85° |
| 2026-04-30 11:04 | 40.61533 | 13.76979 | 7242 ft | 252 kts | 76° |
| 2026-04-30 11:04 | 40.61862 | 13.78423 | 7100 ft | 246 kts | 64° |
| 2026-04-30 11:04 | 40.62919 | 13.80715 | 6851 ft | 237 kts | 51° |
| 2026-04-30 11:04 | 40.63866 | 13.82465 | 6655 ft | 232 kts | 51° |
| 2026-04-30 11:05 | 40.64792 | 13.84181 | 6458 ft | 228 kts | 51° |
| 2026-04-30 11:05 | 40.65697 | 13.85862 | 6275 ft | 222 kts | 50° |
| 2026-04-30 11:05 | 40.66582 | 13.87503 | 6079 ft | 217 kts | 51° |
| 2026-04-30 11:05 | 40.67178 | 13.88611 | 5954 ft | 213 kts | 51° |
| 2026-04-30 11:06 | 40.67875 | 13.89909 | 5808 ft | 209 kts | 50° |
| 2026-04-30 11:06 | 40.68440 | 13.90962 | 5692 ft | 208 kts | 50° |
| 2026-04-30 11:06 | 40.69542 | 13.93015 | 5462 ft | 207 kts | 50° |
| 2026-04-30 11:06 | 40.70087 | 13.94029 | 5347 ft | 206 kts | 50° |
| 2026-04-30 11:07 | 40.71043 | 13.95805 | 5160 ft | 208 kts | 50° |
| 2026-04-30 11:07 | 40.71868 | 13.97332 | 4974 ft | 201 kts | 51° |
| 2026-04-30 11:07 | 40.72663 | 13.98816 | 4809 ft | 197 kts | 53° |
| 2026-04-30 11:07 | 40.73447 | 14.00280 | 4639 ft | 194 kts | 53° |
| 2026-04-30 11:08 | 40.73972 | 14.01261 | 4539 ft | 192 kts | 53° |
| 2026-04-30 11:08 | 40.74987 | 14.03156 | 4332 ft | 191 kts | 53° |
| 2026-04-30 11:08 | 40.75503 | 14.04118 | 4226 ft | 190 kts | 53° |
| 2026-04-30 11:08 | 40.76264 | 14.05538 | 4066 ft | 189 kts | 54° |
| 2026-04-30 11:09 | 40.76571 | 14.06116 | 4003 ft | 189 kts | 54° |
| 2026-04-30 11:09 | 40.77022 | 14.06985 | 3901 ft | 187 kts | 54° |
| 2026-04-30 11:09 | 40.77761 | 14.08390 | 3748 ft | 186 kts | 54° |
| 2026-04-30 11:09 | 40.78499 | 14.09779 | 3583 ft | 185 kts | 54° |
| 2026-04-30 11:10 | 40.79241 | 14.11174 | 3433 ft | 185 kts | 55° |
| 2026-04-30 11:10 | 40.79977 | 14.12555 | 3273 ft | 183 kts | 55° |
| 2026-04-30 11:10 | 40.80709 | 14.13929 | 3125 ft | 183 kts | 55° |
| 2026-04-30 11:10 | 40.81445 | 14.15291 | 2992 ft | 183 kts | 53° |
| 2026-04-30 11:11 | 40.82210 | 14.16634 | 2736 ft | 183 kts | 56° |
| 2026-04-30 11:11 | 40.82954 | 14.17997 | 2407 ft | 182 kts | 56° |
| 2026-04-30 11:11 | 40.83607 | 14.19227 | 2105 ft | 174 kts | 57° |
| 2026-04-30 11:11 | 40.84273 | 14.20493 | 1822 ft | 165 kts | 57° |
| 2026-04-30 11:12 | 40.84907 | 14.21670 | 1673 ft | 151 kts | 56° |
| 2026-04-30 11:12 | 40.85486 | 14.22781 | 1498 ft | 141 kts | 56° |
| 2026-04-30 11:12 | 40.86030 | 14.23847 | 1203 ft | 141 kts | 54° |
| 2026-04-30 11:12 | 40.86582 | 14.24925 | 946 ft | 141 kts | 57° |
| 2026-04-30 11:13 | 40.87115 | 14.25976 | 716 ft | 135 kts | 57° |
| 2026-04-30 11:13 | 40.87591 | 14.26946 | 547 ft | 133 kts | 56° |
| 2026-04-30 11:13 | 40.88087 | 14.27980 | 374 ft | 133 kts | 58° |
| 2026-04-30 11:13 | 40.88545 | 14.28955 | 277 ft | 111 kts | 58° |
| 2026-04-30 11:14 | 40.88964 | 14.29823 | 674 ft | 118 kts | 58° |
| 2026-04-30 11:14 | 40.89445 | 14.30793 | 1423 ft | 132 kts | 56° |
| 2026-04-30 11:14 | 40.90003 | 14.31808 | 1905 ft | 145 kts | 53° |
| 2026-04-30 11:14 | 40.90656 | 14.32963 | 2197 ft | 169 kts | 53° |
| 2026-04-30 11:15 | 40.91404 | 14.34297 | 2526 ft | 191 kts | 54° |
| 2026-04-30 11:15 | 40.92197 | 14.35711 | 3349 ft | 191 kts | 49° |
| 2026-04-30 11:15 | 40.93279 | 14.36753 | 3822 ft | 198 kts | 18° |
| 2026-04-30 11:15 | 40.94645 | 14.36755 | 3952 ft | 203 kts | 344° |
| 2026-04-30 11:16 | 40.95790 | 14.35630 | 3982 ft | 214 kts | 309° |
| 2026-04-30 11:16 | 40.96262 | 14.33731 | 3985 ft | 226 kts | 274° |
| 2026-04-30 11:16 | 40.96004 | 14.31755 | 3982 ft | 234 kts | 257° |
| 2026-04-30 11:16 | 40.95414 | 14.29745 | 3984 ft | 236 kts | 243° |
| 2026-04-30 11:17 | 40.94587 | 14.27871 | 3983 ft | 236 kts | 239° |
| 2026-04-30 11:17 | 40.93722 | 14.26027 | 3984 ft | 236 kts | 239° |
| 2026-04-30 11:17 | 40.92850 | 14.24186 | 3980 ft | 236 kts | 239° |
| 2026-04-30 11:17 | 40.92019 | 14.22425 | 3978 ft | 236 kts | 239° |
| 2026-04-30 11:18 | 40.91160 | 14.20578 | 3985 ft | 234 kts | 239° |
| 2026-04-30 11:18 | 40.89483 | 14.16901 | 3981 ft | 233 kts | 239° |
| 2026-04-30 11:18 | 40.88653 | 14.15081 | 3983 ft | 230 kts | 240° |
| 2026-04-30 11:19 | 40.87827 | 14.13279 | 3789 ft | 229 kts | 239° |
| 2026-04-30 11:19 | 40.87009 | 14.11485 | 3516 ft | 228 kts | 239° |
| 2026-04-30 11:19 | 40.86196 | 14.09679 | 3216 ft | 228 kts | 239° |
| 2026-04-30 11:19 | 40.85393 | 14.07873 | 3011 ft | 229 kts | 239° |
| 2026-04-30 11:20 | 40.84492 | 14.06128 | 2986 ft | 230 kts | 222° |
| 2026-04-30 11:20 | 40.83183 | 14.05034 | 2987 ft | 217 kts | 194° |
| 2026-04-30 11:20 | 40.81735 | 14.04838 | 2987 ft | 205 kts | 166° |
| 2026-04-30 11:20 | 40.80460 | 14.05425 | 3025 ft | 192 kts | 143° |
| 2026-04-30 11:21 | 40.79506 | 14.06575 | 2991 ft | 183 kts | 120° |
| 2026-04-30 11:21 | 40.78982 | 14.08053 | 2981 ft | 176 kts | 99° |
| 2026-04-30 11:21 | 40.78907 | 14.09640 | 2983 ft | 173 kts | 80° |
| 2026-04-30 11:21 | 40.79260 | 14.11140 | 2985 ft | 171 kts | 62° |
| 2026-04-30 11:22 | 40.79935 | 14.12436 | 2985 ft | 171 kts | 56° |
| 2026-04-30 11:22 | 40.80621 | 14.13717 | 2984 ft | 171 kts | 55° |
| 2026-04-30 11:22 | 40.81304 | 14.15008 | 2984 ft | 171 kts | 56° |
| 2026-04-30 11:22 | 40.81983 | 14.16295 | 2961 ft | 172 kts | 56° |
| 2026-04-30 11:23 | 40.82712 | 14.17585 | 2528 ft | 177 kts | 54° |
| 2026-04-30 11:23 | 40.83378 | 14.18820 | 2219 ft | 168 kts | 56° |
| 2026-04-30 11:23 | 40.84589 | 14.21110 | 1777 ft | 138 kts | 58° |
| 2026-04-30 11:24 | 40.85137 | 14.22156 | 1541 ft | 137 kts | 55° |
| 2026-04-30 11:24 | 40.85679 | 14.23188 | 1295 ft | 136 kts | 56° |
| 2026-04-30 11:24 | 40.86218 | 14.24242 | 1085 ft | 136 kts | 56° |
| 2026-04-30 11:25 | 40.87244 | 14.26220 | 678 ft | 133 kts | 55° |
| 2026-04-30 11:25 | 40.87740 | 14.27254 | 516 ft | 133 kts | 57° |
| 2026-04-30 11:25 | 40.88644 | 14.29164 | 265 ft | 95 kts | 58° |
| 2026-04-30 11:26 | 40.88997 | 14.29920 | 244 ft | 35 kts | 60° |
| 2026-04-30 11:26 | 40.89070 | 14.30076 | 238 ft | 10 kts | 67° |
| 2026-04-30 11:26 | 40.89025 | 14.30145 | 238 ft | 12 kts | 148° |
| 2026-04-30 11:27 | 40.88957 | 14.30183 | 238 ft | 8 kts | 204° |
| 2026-04-30 11:27 | 40.88919 | 14.30118 | 241 ft | 9 kts | 234° |
| 2026-04-30 11:27 | 40.88864 | 14.30018 | 244 ft | 18 kts | 233° |
| 2026-04-30 11:27 | 40.88778 | 14.29876 | 249 ft | 20 kts | 233° |
| 2026-04-30 11:28 | 40.88613 | 14.29589 | 258 ft | 19 kts | 232° |
| 2026-04-30 11:28 | 40.88532 | 14.29448 | 262 ft | 19 kts | 232° |
| 2026-04-30 11:28 | 40.88451 | 14.29308 | 266 ft | 19 kts | 233° |
| 2026-04-30 11:29 | 40.88371 | 14.29167 | 269 ft | 19 kts | 233° |
| 2026-04-30 11:29 | 40.88289 | 14.29028 | 273 ft | 19 kts | 232° |
| 2026-04-30 11:29 | 40.88125 | 14.28742 | 280 ft | 20 kts | 233° |
| 2026-04-30 11:30 | 40.87961 | 14.28477 | 287 ft | 15 kts | 219° |
| 2026-04-30 11:30 | 40.87938 | 14.28395 | 288 ft | 8 kts | 277° |
| 2026-04-30 11:30 | 40.87946 | 14.28324 | 289 ft | 8 kts | 278° |
| 2026-04-30 11:31 | 40.87954 | 14.28248 | 292 ft | 9 kts | 278° |
| 2026-04-30 11:31 | 40.87963 | 14.28159 | 293 ft | 10 kts | 274° |
| 2026-04-30 11:31 | 40.87933 | 14.28077 | 295 ft | 10 kts | 230° |
| 2026-04-30 11:31 | 40.87901 | 14.28031 | 298 ft | 3 kts | 204° |
| 2026-04-30 11:32 | 40.87881 | 14.28041 | 298 ft | 4 kts | 147° |
| 2026-04-30 11:32 | 40.87854 | 14.28072 | 297 ft | 6 kts | 140° |
| 2026-04-30 11:32 | 40.87838 | 14.28089 | 295 ft | 0 kts | 141° |